Time;durP1;ratioP1;P1;durP2;ratioP2;P2;SDS_P1;SDS_P2;PMS_P1;PMS_P2;Temp;Humidity;BMP_temperature;BMP_pressure;BME280_temperature;BME280_humidity;BME280_pressure;Samples;Min_cycle;Max_cycle;Signal;HPM_P1;HPM_P2
2022/03/15 00:01:10;;;;;;;;;;;5.80;86.10;;;;;;5056251;28;19917;-85
2022/03/15 00:03:36;;;;;;;;;;;5.60;86.60;;;;;;5059233;28;19935;-85
2022/03/15 00:06:02;;;;;;;;;;;5.60;87.60;;;;;;5075743;28;20358;-85
2022/03/15 00:08:28;;;;;;;;;;;5.60;87.70;;;;;;5074720;28;20282;-85
2022/03/15 00:10:58;;;;;;;;;;;5.70;87.70;;;;;;5055650;28;19913;-85
2022/03/15 00:13:30;;;;;;;;;;;5.70;87.50;;;;;;5056959;28;19984;-86
2022/03/15 00:15:57;;;;;;;;;;;5.80;87.50;;;;;;5074735;28;20286;-85
2022/03/15 00:18:22;;;;;;;;;;;5.90;87.30;;;;;;5075484;28;20274;-85
2022/03/15 00:20:48;;;;;;;;;;;6.00;87.10;;;;;;5075415;28;19917;-85
2022/03/15 00:23:14;;;;;;;;;;;6.10;86.90;;;;;;5074742;28;19916;-86
2022/03/15 00:25:39;;;;;;;;;;;6.10;86.70;;;;;;5075515;28;19920;-85
2022/03/15 00:28:05;;;;;;;;;;;6.10;86.30;;;;;;5074942;28;19923;-86
2022/03/15 00:30:30;;;;;;;;;;;6.10;85.60;;;;;;5057197;28;19913;-85
2022/03/15 00:32:56;;;;;;;;;;;6.00;85.20;;;;;;5075252;28;19935;-86
2022/03/15 00:35:24;;;;;;;;;;;6.00;85.40;;;;;;5074036;28;19912;-86
2022/03/15 00:37:51;;;;;;;;;;;5.90;86.10;;;;;;5075146;28;19991;-86
2022/03/15 00:40:17;;;;;;;;;;;6.00;86.30;;;;;;5060956;28;19917;-86
2022/03/15 00:42:50;;;;;;;;;;;5.90;85.90;;;;;;5055014;28;19959;-85
2022/03/15 00:45:15;;;;;;;;;;;5.80;85.40;;;;;;5037250;28;19920;-85
2022/03/15 00:47:41;;;;;;;;;;;5.60;84.90;;;;;;5055014;28;19909;-85
2022/03/15 00:50:07;;;;;;;;;;;5.40;86.20;;;;;;5068725;28;20321;-85
2022/03/15 00:52:32;;;;;;;;;;;5.20;86.00;;;;;;5056764;28;19915;-85
2022/03/15 00:54:58;;;;;;;;;;;5.10;87.00;;;;;;5073711;28;19997;-86
2022/03/15 00:57:23;;;;;;;;;;;5.10;87.40;;;;;;5074728;28;19909;-85
2022/03/15 00:59:49;;;;;;;;;;;5.10;87.40;;;;;;5074687;28;19955;-85
2022/03/15 01:02:15;;;;;;;;;;;5.30;87.20;;;;;;5074572;28;19913;-85
2022/03/15 01:04:40;;;;;;;;;;;5.40;86.70;;;;;;5073400;28;19912;-85
2022/03/15 01:07:06;;;;;;;;;;;5.50;85.80;;;;;;5074545;28;19916;-85
2022/03/15 01:09:31;;;;;;;;;;;5.60;85.10;;;;;;5072911;28;19954;-85
2022/03/15 01:11:59;;;;;;;;;;;5.70;84.60;;;;;;5074429;28;19991;-86
2022/03/15 01:14:25;;;;;;;;;;;5.80;84.40;;;;;;5072986;28;20175;-85
2022/03/15 01:16:51;;;;;;;;;;;6.00;84.90;;;;;;5074367;28;19916;-85
2022/03/15 01:19:16;;;;;;;;;;;6.00;84.90;;;;;;5074515;28;20310;-85
2022/03/15 01:21:42;;;;;;;;;;;5.90;83.90;;;;;;5074152;28;20082;-85
2022/03/15 01:24:08;;;;;;;;;;;5.70;83.50;;;;;;5068455;28;20274;-85
2022/03/15 01:26:37;;;;;;;;;;;5.50;83.30;;;;;;5053472;28;20441;-85
2022/03/15 01:29:03;;;;;;;;;;;5.40;85.60;;;;;;5054038;28;20363;-85
2022/03/15 01:31:28;;;;;;;;;;;5.20;84.40;;;;;;5036032;28;19915;-85
2022/03/15 01:33:54;;;;;;;;;;;5.10;84.10;;;;;;5057608;28;19926;-85
2022/03/15 01:36:20;;;;;;;;;;;5.00;84.90;;;;;;5073697;28;19948;-85
2022/03/15 01:38:46;;;;;;;;;;;4.90;85.50;;;;;;5054118;28;19909;-86
2022/03/15 01:41:11;;;;;;;;;;;4.90;85.70;;;;;;5053851;28;19947;-86
2022/03/15 01:43:39;;;;;;;;;;;4.70;85.80;;;;;;5053992;28;19920;-85
2022/03/15 01:46:05;;;;;;;;;;;4.50;86.40;;;;;;5054053;28;19959;-86
2022/03/15 01:48:31;;;;;;;;;;;4.50;87.10;;;;;;5035908;28;19916;-86
2022/03/15 01:50:57;;;;;;;;;;;4.60;87.80;;;;;;5065829;28;19913;-85
2022/03/15 01:53:22;;;;;;;;;;;4.80;87.80;;;;;;5073593;28;19908;-85
2022/03/15 01:55:48;;;;;;;;;;;4.90;87.90;;;;;;5036461;28;19959;-85
2022/03/15 01:58:14;;;;;;;;;;;4.90;87.90;;;;;;5053641;28;19951;-85
2022/03/15 02:00:39;;;;;;;;;;;4.90;87.60;;;;;;5053519;28;19955;-85
2022/03/15 02:03:05;;;;;;;;;;;4.80;87.50;;;;;;5053603;28;20046;-86
2022/03/15 02:05:31;;;;;;;;;;;4.80;87.70;;;;;;5053309;28;19959;-85
2022/03/15 02:07:56;;;;;;;;;;;4.80;88.20;;;;;;5053538;28;19916;-85
2022/03/15 02:10:22;;;;;;;;;;;4.60;88.20;;;;;;5064758;28;19919;-85
2022/03/15 02:12:48;;;;;;;;;;;4.40;88.70;;;;;;5073407;28;19908;-85
2022/03/15 02:15:13;;;;;;;;;;;4.40;90.10;;;;;;5058783;28;19958;-85
2022/03/15 02:17:39;;;;;;;;;;;4.40;91.10;;;;;;5035450;28;19935;-85
2022/03/15 02:20:08;;;;;;;;;;;4.50;91.40;;;;;;5053278;28;20309;-85
2022/03/15 02:22:34;;;;;;;;;;;4.70;91.40;;;;;;5067887;28;19946;-85
2022/03/15 02:25:00;;;;;;;;;;;4.80;91.10;;;;;;5054175;28;20373;-85
2022/03/15 02:27:25;;;;;;;;;;;4.90;91.00;;;;;;5053227;28;20266;-85
2022/03/15 02:29:51;;;;;;;;;;;5.00;90.90;;;;;;5053101;28;19909;-85
2022/03/15 02:32:17;;;;;;;;;;;5.20;90.30;;;;;;5055173;28;19928;-86
2022/03/15 02:34:42;;;;;;;;;;;5.20;89.80;;;;;;5073143;28;19948;-85
2022/03/15 02:37:08;;;;;;;;;;;5.30;89.30;;;;;;5072931;28;19923;-85
2022/03/15 02:39:34;;;;;;;;;;;5.30;88.00;;;;;;5061492;28;19913;-85
2022/03/15 02:42:00;;;;;;;;;;;5.40;87.40;;;;;;5052703;28;20067;-85
2022/03/15 02:44:25;;;;;;;;;;;5.40;86.60;;;;;;5071948;28;19920;-85
2022/03/15 02:46:51;;;;;;;;;;;5.40;86.10;;;;;;5062536;28;20042;-85
2022/03/15 02:49:17;;;;;;;;;;;5.40;85.70;;;;;;5052918;28;19912;-85
2022/03/15 02:51:43;;;;;;;;;;;5.50;85.50;;;;;;5062403;28;19916;-86
2022/03/15 02:54:13;;;;;;;;;;;5.60;85.30;;;;;;5056415;28;19913;-85
2022/03/15 02:56:42;;;;;;;;;;;5.60;85.10;;;;;;5052897;28;19916;-85
2022/03/15 02:59:08;;;;;;;;;;;5.60;85.20;;;;;;5052788;28;20366;-85
2022/03/15 03:01:34;;;;;;;;;;;5.30;85.20;;;;;;5052731;28;19913;-85
2022/03/15 03:03:59;;;;;;;;;;;5.00;85.90;;;;;;5067157;28;20015;-85
2022/03/15 03:06:25;;;;;;;;;;;4.90;86.60;;;;;;5072767;28;19935;-85
2022/03/15 03:08:51;;;;;;;;;;;4.70;87.10;;;;;;5070899;28;19967;-85
2022/03/15 03:11:17;;;;;;;;;;;4.70;87.60;;;;;;5070461;28;20007;-85
2022/03/15 03:13:44;;;;;;;;;;;4.80;87.70;;;;;;5060309;28;19951;-86
2022/03/15 03:16:12;;;;;;;;;;;4.90;87.90;;;;;;5052874;28;20432;-85
2022/03/15 03:18:37;;;;;;;;;;;5.00;88.10;;;;;;5052706;28;19909;-86
2022/03/15 03:21:04;;;;;;;;;;;5.10;88.10;;;;;;5067065;28;20383;-85
2022/03/15 03:23:33;;;;;;;;;;;5.20;88.00;;;;;;5062212;28;19917;-85
2022/03/15 03:25:59;;;;;;;;;;;5.20;87.90;;;;;;5070779;28;20355;-85
2022/03/15 03:28:25;;;;;;;;;;;5.20;88.00;;;;;;5072657;28;19912;-86
2022/03/15 03:30:51;;;;;;;;;;;5.10;87.90;;;;;;5059685;28;20286;-85
2022/03/15 03:33:19;;;;;;;;;;;5.20;87.80;;;;;;5060499;28;20271;-85
2022/03/15 03:35:45;;;;;;;;;;;5.20;87.70;;;;;;5072088;28;19919;-85
2022/03/15 03:38:10;;;;;;;;;;;5.10;87.60;;;;;;5072704;28;19908;-85
2022/03/15 03:40:36;;;;;;;;;;;5.10;87.20;;;;;;5070447;28;19924;-85
2022/03/15 03:43:02;;;;;;;;;;;5.00;87.50;;;;;;5066310;28;20377;-85
2022/03/15 03:45:27;;;;;;;;;;;4.90;87.40;;;;;;5034521;28;20327;-85
2022/03/15 03:47:53;;;;;;;;;;;4.70;87.50;;;;;;5052962;28;19913;-85
2022/03/15 03:50:18;;;;;;;;;;;4.60;87.90;;;;;;5056112;28;19996;-85
2022/03/15 03:52:44;;;;;;;;;;;4.60;88.40;;;;;;5060245;28;19912;-86
2022/03/15 03:55:10;;;;;;;;;;;4.70;88.70;;;;;;5075187;28;20328;-85
2022/03/15 03:57:35;;;;;;;;;;;4.90;88.80;;;;;;5075891;28;20263;-86
2022/03/15 04:00:01;;;;;;;;;;;5.00;88.60;;;;;;5072403;28;20320;-85
2022/03/15 04:02:27;;;;;;;;;;;5.00;88.00;;;;;;5050997;28;19972;-85
2022/03/15 04:04:54;;;;;;;;;;;4.80;87.60;;;;;;5056010;28;20301;-85
2022/03/15 04:07:20;;;;;;;;;;;4.70;87.30;;;;;;5065570;28;19967;-86
2022/03/15 04:09:45;;;;;;;;;;;4.50;87.80;;;;;;5073866;28;19952;-85
2022/03/15 04:12:11;;;;;;;;;;;4.50;88.00;;;;;;5071149;28;19920;-85
2022/03/15 04:14:36;;;;;;;;;;;4.70;88.00;;;;;;5055649;28;19909;-85
2022/03/15 04:17:03;;;;;;;;;;;4.70;87.90;;;;;;5056087;28;19919;-86
2022/03/15 04:19:28;;;;;;;;;;;5.00;87.70;;;;;;5055582;28;19909;-85
2022/03/15 04:21:54;;;;;;;;;;;5.00;87.00;;;;;;5056706;28;20281;-85
2022/03/15 04:24:19;;;;;;;;;;;4.90;86.80;;;;;;5075501;28;20259;-85
2022/03/15 04:26:46;;;;;;;;;;;4.80;87.30;;;;;;5075036;28;20313;-85
2022/03/15 04:29:12;;;;;;;;;;;4.80;87.70;;;;;;5075241;28;19915;-85
2022/03/15 04:31:37;;;;;;;;;;;4.80;87.70;;;;;;5075183;28;19909;-85
2022/03/15 04:34:03;;;;;;;;;;;4.70;87.90;;;;;;5055858;28;20322;-85
2022/03/15 04:36:29;;;;;;;;;;;4.80;88.40;;;;;;5055743;28;20286;-85
2022/03/15 04:38:55;;;;;;;;;;;4.90;88.60;;;;;;5055124;28;19935;-85
2022/03/15 04:41:21;;;;;;;;;;;5.00;88.30;;;;;;5055973;28;19928;-85
2022/03/15 04:43:46;;;;;;;;;;;5.00;88.00;;;;;;5071522;28;20281;-85
2022/03/15 04:46:12;;;;;;;;;;;5.10;87.80;;;;;;5074579;28;20282;-85
2022/03/15 04:48:38;;;;;;;;;;;5.00;87.70;;;;;;5074988;28;19995;-85
2022/03/15 04:51:03;;;;;;;;;;;5.00;87.70;;;;;;5074951;28;20381;-86
2022/03/15 04:53:29;;;;;;;;;;;5.00;87.50;;;;;;5060861;28;20401;-85
2022/03/15 04:55:54;;;;;;;;;;;5.10;87.80;;;;;;5055905;28;20282;-85
2022/03/15 04:58:20;;;;;;;;;;;5.20;87.90;;;;;;5054699;28;19908;-85
2022/03/15 05:00:46;;;;;;;;;;;5.40;87.50;;;;;;5054716;28;20047;-85
2022/03/15 05:03:11;;;;;;;;;;;5.40;86.60;;;;;;5065300;28;19962;-85
2022/03/15 05:05:37;;;;;;;;;;;5.20;86.60;;;;;;5074681;28;20019;-85
2022/03/15 05:08:03;;;;;;;;;;;5.10;86.90;;;;;;5063071;28;19913;-85
2022/03/15 05:13:14;;;;;;;;;;;4.90;87.20;;;;;;5065783;28;19920;-85
2022/03/15 05:15:39;;;;;;;;;;;4.90;87.90;;;;;;5074654;28;19943;-85
2022/03/15 05:18:05;;;;;;;;;;;4.90;87.90;;;;;;5063433;28;19952;-85
2022/03/15 05:20:31;;;;;;;;;;;4.90;88.00;;;;;;5054527;28;19990;-85
2022/03/15 05:22:57;;;;;;;;;;;5.00;88.20;;;;;;5062993;28;19978;-85
2022/03/15 05:25:23;;;;;;;;;;;5.10;88.20;;;;;;5074493;28;19923;-85
2022/03/15 05:27:48;;;;;;;;;;;5.30;88.10;;;;;;5073682;28;19919;-85
2022/03/15 05:30:14;;;;;;;;;;;5.40;87.90;;;;;;5069406;28;19913;-85
2022/03/15 05:32:40;;;;;;;;;;;5.40;87.60;;;;;;5067403;28;19938;-85
2022/03/15 05:35:05;;;;;;;;;;;5.50;87.30;;;;;;5054099;28;19908;-86
2022/03/15 05:37:31;;;;;;;;;;;5.60;87.10;;;;;;5063540;28;19956;-85
2022/03/15 05:39:57;;;;;;;;;;;5.50;86.60;;;;;;5053796;28;19919;-85
2022/03/15 05:42:23;;;;;;;;;;;5.50;86.60;;;;;;5062851;28;19924;-85
2022/03/15 05:44:49;;;;;;;;;;;5.40;86.50;;;;;;5053918;28;19995;-86
2022/03/15 05:47:15;;;;;;;;;;;5.30;86.60;;;;;;5065580;28;19912;-85
2022/03/15 05:49:40;;;;;;;;;;;5.30;87.10;;;;;;5073936;28;19913;-85
2022/03/15 05:52:07;;;;;;;;;;;5.20;87.40;;;;;;5072072;28;19936;-85
2022/03/15 05:54:34;;;;;;;;;;;5.10;87.60;;;;;;5054016;28;19913;-85
2022/03/15 05:56:59;;;;;;;;;;;5.00;88.10;;;;;;5061014;28;19973;-85
2022/03/15 05:59:25;;;;;;;;;;;5.10;88.30;;;;;;5073373;28;20425;-85
2022/03/15 06:01:50;;;;;;;;;;;5.10;88.60;;;;;;5060866;28;19916;-85
2022/03/15 06:04:17;;;;;;;;;;;5.30;88.60;;;;;;5057715;28;19931;-85
2022/03/15 06:06:42;;;;;;;;;;;5.40;88.40;;;;;;5062027;28;19912;-86
2022/03/15 06:09:08;;;;;;;;;;;5.40;88.10;;;;;;5058539;28;19958;-85
2022/03/15 06:11:39;;;;;;;;;;;5.50;87.70;;;;;;5039500;28;20285;-86
2022/03/15 06:14:05;;;;;;;;;;;5.50;87.50;;;;;;5059456;28;19913;-86
2022/03/15 06:16:31;;;;;;;;;;;5.50;87.60;;;;;;5066132;28;20357;-85
2022/03/15 06:18:56;;;;;;;;;;;5.60;87.50;;;;;;5072291;28;19958;-85
2022/03/15 06:21:22;;;;;;;;;;;5.70;87.60;;;;;;5070198;28;20011;-85
2022/03/15 06:23:48;;;;;;;;;;;6.00;86.00;;;;;;5040193;28;19995;-85
2022/03/15 06:26:15;;;;;;;;;;;6.00;85.40;;;;;;5063314;28;20449;-85
2022/03/15 06:28:41;;;;;;;;;;;6.00;85.50;;;;;;5070238;28;19958;-85
2022/03/15 06:31:07;;;;;;;;;;;6.00;85.60;;;;;;5067053;28;19916;-85
2022/03/15 06:33:33;;;;;;;;;;;6.00;85.90;;;;;;5064045;28;19920;-85
2022/03/15 06:35:58;;;;;;;;;;;6.00;86.00;;;;;;5057061;28;19912;-85
2022/03/15 06:38:24;;;;;;;;;;;6.00;86.20;;;;;;5060564;28;19935;-85
2022/03/15 06:40:52;;;;;;;;;;;6.10;86.20;;;;;;5064763;22;19929;-85
2022/03/15 06:43:19;;;;;;;;;;;6.20;86.10;;;;;;5043658;28;19956;-85
2022/03/15 06:45:46;;;;;;;;;;;6.20;86.20;;;;;;5056841;28;19912;-85
2022/03/15 06:48:12;;;;;;;;;;;6.30;86.30;;;;;;5049629;28;20428;-85
2022/03/15 06:50:38;;;;;;;;;;;6.40;86.10;;;;;;5042558;28;20008;-85
2022/03/15 06:53:03;;;;;;;;;;;6.60;85.80;;;;;;5042457;28;19913;-86
2022/03/15 06:55:29;;;;;;;;;;;6.80;85.30;;;;;;5044434;28;20237;-86
2022/03/15 06:57:55;;;;;;;;;;;6.80;85.00;;;;;;5049522;28;19912;-85
2022/03/15 07:00:21;;;;;;;;;;;6.80;84.80;;;;;;5029425;28;19981;-85
2022/03/15 07:02:47;;;;;;;;;;;6.90;84.70;;;;;;5046863;28;19936;-85
2022/03/15 07:05:12;;;;;;;;;;;7.00;84.60;;;;;;5038464;28;19913;-85
2022/03/15 07:07:38;;;;;;;;;;;7.00;84.60;;;;;;5044513;28;19966;-85
2022/03/15 07:10:09;;;;;;;;;;;7.10;84.40;;;;;;5027360;28;20437;-85
2022/03/15 07:12:35;;;;;;;;;;;7.10;84.30;;;;;;5029006;28;20264;-86
2022/03/15 07:15:03;;;;;;;;;;;7.10;84.40;;;;;;5026688;28;19980;-85
2022/03/15 07:17:30;;;;;;;;;;;7.00;84.70;;;;;;5011389;28;19996;-86
2022/03/15 07:19:57;;;;;;;;;;;7.10;84.90;;;;;;5029195;28;20381;-85
2022/03/15 07:22:24;;;;;;;;;;;7.10;84.90;;;;;;5028054;28;19917;-85
2022/03/15 07:24:49;;;;;;;;;;;7.10;84.90;;;;;;5027566;28;20286;-85
2022/03/15 07:27:15;;;;;;;;;;;7.20;85.10;;;;;;5031776;28;19913;-85
2022/03/15 07:29:41;;;;;;;;;;;7.30;84.90;;;;;;5023333;28;20363;-85
2022/03/15 07:32:06;;;;;;;;;;;7.40;84.70;;;;;;5035989;28;19924;-85
2022/03/15 07:34:32;;;;;;;;;;;7.40;84.50;;;;;;5025849;28;19976;-85
2022/03/15 07:36:57;;;;;;;;;;;7.50;84.40;;;;;;5028388;28;20302;-85
2022/03/15 07:39:23;;;;;;;;;;;7.70;84.30;;;;;;5027949;28;20389;-85
2022/03/15 07:41:49;;;;;;;;;;;7.90;83.40;;;;;;5027931;28;19921;-85
2022/03/15 07:44:15;;;;;;;;;;;7.90;83.40;;;;;;5010166;28;19913;-85
2022/03/15 07:46:43;;;;;;;;;;;8.00;83.70;;;;;;5038838;28;20367;-85
2022/03/15 07:49:09;;;;;;;;;;;8.10;83.30;;;;;;5027316;28;20450;-85
2022/03/15 07:51:34;;;;;;;;;;;8.00;83.10;;;;;;5012159;28;20000;-86
2022/03/15 07:54:00;;;;;;;;;;;8.10;83.40;;;;;;5028840;28;20027;-86
2022/03/15 07:56:25;;;;;;;;;;;8.10;83.90;;;;;;5034453;28;19988;-86
2022/03/15 07:58:51;;;;;;;;;;;8.20;84.10;;;;;;5033827;28;19913;-85
2022/03/15 08:01:16;;;;;;;;;;;8.40;84.00;;;;;;5023998;28;20298;-85
2022/03/15 08:03:42;;;;;;;;;;;8.40;83.20;;;;;;5027592;28;19914;-86
2022/03/15 08:06:07;;;;;;;;;;;8.50;82.80;;;;;;5026085;28;19932;-86
2022/03/15 08:08:33;;;;;;;;;;;8.70;82.60;;;;;;5031779;28;20343;-86
2022/03/15 08:11:00;;;;;;;;;;;8.90;82.40;;;;;;5025021;28;20375;-86
2022/03/15 08:13:25;;;;;;;;;;;9.10;81.60;;;;;;5027139;28;19913;-85
2022/03/15 08:15:51;;;;;;;;;;;9.30;79.90;;;;;;5013365;28;19916;-85
2022/03/15 08:18:16;;;;;;;;;;;9.30;79.80;;;;;;5034779;28;19927;-85
2022/03/15 08:20:42;;;;;;;;;;;9.20;80.30;;;;;;5028075;28;19913;-85
2022/03/15 08:23:10;;;;;;;;;;;9.10;80.10;;;;;;5028368;28;20027;-85
2022/03/15 08:25:36;;;;;;;;;;;9.10;80.80;;;;;;5031499;28;19925;-85
2022/03/15 08:28:01;;;;;;;;;;;9.10;81.00;;;;;;5033617;28;20282;-86
2022/03/15 08:30:27;;;;;;;;;;;9.30;81.10;;;;;;5026597;28;19920;-86
2022/03/15 08:32:53;;;;;;;;;;;9.50;81.00;;;;;;5030062;28;20391;-86
2022/03/15 08:35:19;;;;;;;;;;;9.70;80.70;;;;;;5031009;28;19979;-86
2022/03/15 08:37:50;;;;;;;;;;;9.90;79.80;;;;;;5032376;28;19960;-86
2022/03/15 08:40:16;;;;;;;;;;;10.20;78.60;;;;;;5025584;28;19921;-86
2022/03/15 08:42:42;;;;;;;;;;;10.40;78.00;;;;;;5029971;28;19976;-86
2022/03/15 08:45:09;;;;;;;;;;;10.50;77.20;;;;;;5023669;28;20356;-86
2022/03/15 08:47:34;;;;;;;;;;;10.60;76.90;;;;;;5030651;28;19921;-86
2022/03/15 08:50:00;;;;;;;;;;;10.70;77.00;;;;;;5029828;28;19921;-86
2022/03/15 08:52:25;;;;;;;;;;;10.90;76.60;;;;;;5028761;28;19982;-86
2022/03/15 08:54:51;;;;;;;;;;;10.90;76.80;;;;;;5030452;28;20429;-85
2022/03/15 08:57:17;;;;;;;;;;;10.70;76.70;;;;;;5029926;28;20375;-86
2022/03/15 08:59:43;;;;;;;;;;;10.70;77.10;;;;;;5012905;28;19983;-85
2022/03/15 09:02:12;;;;;;;;;;;10.60;77.20;;;;;;5034169;28;19924;-85
2022/03/15 09:04:37;;;;;;;;;;;10.40;78.20;;;;;;5032891;28;19913;-85
2022/03/15 09:07:03;;;;;;;;;;;10.40;78.90;;;;;;5025748;28;19944;-86
2022/03/15 09:09:28;;;;;;;;;;;10.30;79.50;;;;;;5022973;28;20306;-86
2022/03/15 09:11:54;;;;;;;;;;;10.30;79.60;;;;;;5028678;28;20299;-85
2022/03/15 09:14:20;;;;;;;;;;;10.40;79.50;;;;;;5030141;28;19925;-86
2022/03/15 09:16:45;;;;;;;;;;;10.60;78.80;;;;;;5027695;28;19945;-86
2022/03/15 09:19:11;;;;;;;;;;;10.90;77.30;;;;;;5029071;28;19967;-86
2022/03/15 09:21:37;;;;;;;;;;;11.10;77.00;;;;;;5032750;28;19999;-86
2022/03/15 09:24:03;;;;;;;;;;;11.10;76.60;;;;;;5033411;28;19935;-86
2022/03/15 09:26:28;;;;;;;;;;;11.20;75.00;;;;;;5028013;28;20279;-86
2022/03/15 09:28:54;;;;;;;;;;;11.30;75.90;;;;;;5026748;28;19920;-86
2022/03/15 09:31:22;;;;;;;;;;;11.30;76.00;;;;;;5028968;28;20394;-86
2022/03/15 09:33:48;;;;;;;;;;;11.20;76.40;;;;;;5025894;28;19920;-85
2022/03/15 09:36:15;;;;;;;;;;;11.20;76.40;;;;;;5032701;28;20279;-85
2022/03/15 09:38:41;;;;;;;;;;;11.00;76.90;;;;;;5030997;28;19917;-86
2022/03/15 09:41:07;;;;;;;;;;;10.90;77.00;;;;;;5027075;28;19979;-85
2022/03/15 09:43:37;;;;;;;;;;;10.90;77.00;;;;;;5028287;28;19928;-86
2022/03/15 09:46:04;;;;;;;;;;;10.90;77.00;;;;;;5028296;28;20004;-86
2022/03/15 09:48:30;;;;;;;;;;;10.90;76.90;;;;;;5013563;28;19914;-86
2022/03/15 09:50:55;;;;;;;;;;;11.10;75.10;;;;;;5036733;28;19967;-86
2022/03/15 09:53:21;;;;;;;;;;;11.30;75.10;;;;;;5035988;28;19927;-86
2022/03/15 09:55:47;;;;;;;;;;;11.60;74.10;;;;;;5031269;28;19995;-86
2022/03/15 09:58:14;;;;;;;;;;;11.80;73.30;;;;;;5030047;28;20008;-86
2022/03/15 10:00:41;;;;;;;;;;;11.90;73.00;;;;;;5028728;28;19914;-86
2022/03/15 10:03:07;;;;;;;;;;;12.00;72.20;;;;;;5033812;28;19917;-86
2022/03/15 10:05:33;;;;;;;;;;;12.00;71.50;;;;;;5034566;28;19920;-85
2022/03/15 10:07:59;;;;;;;;;;;11.80;71.80;;;;;;5032904;28;19924;-85
2022/03/15 10:10:24;;;;;;;;;;;11.60;72.80;;;;;;5028130;28;20318;-85
2022/03/15 10:12:50;;;;;;;;;;;11.40;73.60;;;;;;5033767;28;19917;-85
2022/03/15 10:15:17;;;;;;;;;;;11.30;74.50;;;;;;5031070;28;20351;-85
2022/03/15 10:17:52;;;;;;;;;;;11.40;74.20;;;;;;5017956;28;19943;-86
2022/03/15 10:20:18;;;;;;;;;;;11.50;73.90;;;;;;5031455;28;19913;-86
2022/03/15 10:22:54;;;;;;;;;;;11.60;74.50;;;;;;5032652;28;19970;-85
2022/03/15 10:25:22;;;;;;;;;;;11.60;73.90;;;;;;5032168;28;19971;-85
2022/03/15 10:27:51;;;;;;;;;;;11.40;73.90;;;;;;5030461;28;19913;-86
2022/03/15 10:30:17;;;;;;;;;;;11.20;74.80;;;;;;5029513;28;19913;-86
2022/03/15 10:32:42;;;;;;;;;;;11.40;75.00;;;;;;5037403;28;19974;-86
2022/03/15 10:35:08;;;;;;;;;;;11.70;74.20;;;;;;5036350;28;19920;-86
2022/03/15 10:37:35;;;;;;;;;;;11.90;73.50;;;;;;5037096;28;19935;-86
2022/03/15 10:40:01;;;;;;;;;;;12.20;72.60;;;;;;5033782;28;20453;-85
2022/03/15 10:42:27;;;;;;;;;;;12.30;72.50;;;;;;5007832;28;20313;-85
2022/03/15 10:44:52;;;;;;;;;;;12.30;72.70;;;;;;5025807;28;19920;-85
2022/03/15 10:47:18;;;;;;;;;;;12.20;72.70;;;;;;5024039;28;19913;-86
2022/03/15 10:49:48;;;;;;;;;;;12.10;72.90;;;;;;5027229;28;19996;-85
2022/03/15 10:52:34;;;;;;;;;;;11.90;72.50;;;;;;5038146;28;19917;-85
2022/03/15 10:55:20;;;;;;;;;;;11.90;72.90;;;;;;5033512;28;19917;-86
2022/03/15 10:57:46;;;;;;;;;;;12.00;72.40;;;;;;5028582;28;20321;-86
2022/03/15 11:00:12;;;;;;;;;;;11.90;72.80;;;;;;5032626;28;20374;-86
2022/03/15 11:02:41;;;;;;;;;;;12.10;72.40;;;;;;5030971;28;19923;-86
2022/03/15 11:05:06;;;;;;;;;;;12.30;72.40;;;;;;5041802;28;20007;-86
2022/03/15 11:07:39;;;;;;;;;;;12.40;70.80;;;;;;5035834;28;20019;-86
2022/03/15 11:10:11;;;;;;;;;;;12.40;71.10;;;;;;5036389;28;19913;-86
2022/03/15 11:12:38;;;;;;;;;;;12.30;71.40;;;;;;5029744;28;20012;-86
2022/03/15 11:15:04;;;;;;;;;;;12.20;71.10;;;;;;5030972;28;20437;-86
2022/03/15 11:17:32;;;;;;;;;;;12.10;71.30;;;;;;5034926;28;19914;-86
2022/03/15 11:19:59;;;;;;;;;;;12.10;71.00;;;;;;5036498;28;19913;-86
2022/03/15 11:22:30;;;;;;;;;;;11.90;70.90;;;;;;5029727;28;19917;-86
2022/03/15 11:24:59;;;;;;;;;;;11.80;72.00;;;;;;5036846;28;19909;-86
2022/03/15 11:27:26;;;;;;;;;;;11.60;72.60;;;;;;5028745;28;19914;-86
2022/03/15 11:29:54;;;;;;;;;;;11.50;73.10;;;;;;5016622;28;20370;-86
2022/03/15 11:32:21;;;;;;;;;;;11.60;73.60;;;;;;5025795;28;20379;-85
2022/03/15 11:34:47;;;;;;;;;;;11.70;72.90;;;;;;5036420;28;19916;-85
2022/03/15 11:37:14;;;;;;;;;;;11.70;73.50;;;;;;5031269;28;20382;-86
2022/03/15 11:39:39;;;;;;;;;;;11.80;72.80;;;;;;5033788;28;19913;-86
2022/03/15 11:42:09;;;;;;;;;;;11.90;71.90;;;;;;5035834;28;19921;-86
2022/03/15 11:44:54;;;;;;;;;;;11.80;72.00;;;;;;5036278;28;19909;-86
2022/03/15 11:47:42;;;;;;;;;;;11.90;72.10;;;;;;5035814;28;19913;-86
2022/03/15 11:50:16;;;;;;;;;;;11.90;72.10;;;;;;4998889;28;19909;-86
2022/03/15 11:52:42;;;;;;;;;;;12.10;71.90;;;;;;5035221;28;20378;-86
2022/03/15 11:55:28;;;;;;;;;;;12.30;71.80;;;;;;5036100;28;19916;-86
2022/03/15 11:57:59;;;;;;;;;;;12.60;70.40;;;;;;5018250;28;20061;-86
2022/03/15 12:00:29;;;;;;;;;;;12.90;68.70;;;;;;5016221;28;19909;-86
2022/03/15 12:02:56;;;;;;;;;;;13.00;66.60;;;;;;5028423;28;19917;-85
2022/03/15 12:05:22;;;;;;;;;;;12.60;67.90;;;;;;5035890;28;20374;-85
2022/03/15 12:08:12;;;;;;;;;;;12.40;68.30;;;;;;5023656;28;19914;-86
2022/03/15 12:10:39;;;;;;;;;;;12.30;68.90;;;;;;5015239;28;20017;-86
2022/03/15 12:13:05;;;;;;;;;;;12.00;69.60;;;;;;5017094;28;20268;-86
2022/03/15 12:15:38;;;;;;;;;;;12.00;69.10;;;;;;5032680;28;19995;-86
2022/03/15 12:18:23;;;;;;;;;;;12.10;69.50;;;;;;5035658;28;19916;-86
2022/03/15 12:21:02;;;;;;;;;;;12.30;69.10;;;;;;5035517;28;19996;-86
2022/03/15 12:23:29;;;;;;;;;;;12.60;68.60;;;;;;5034793;28;19917;-86
2022/03/15 12:25:57;;;;;;;;;;;12.70;67.40;;;;;;5017081;28;19921;-86
2022/03/15 12:28:28;;;;;;;;;;;12.90;67.10;;;;;;5022279;28;19932;-86
2022/03/15 12:30:54;;;;;;;;;;;12.90;67.00;;;;;;5032680;28;19967;-86
2022/03/15 12:33:26;;;;;;;;;;;12.90;66.80;;;;;;5031183;28;19914;-86
2022/03/15 12:36:02;;;;;;;;;;;13.10;66.80;;;;;;5033594;28;19928;-86
2022/03/15 12:38:32;;;;;;;;;;;13.10;65.90;;;;;;5031129;28;19913;-86
2022/03/15 12:41:00;;;;;;;;;;;13.20;65.60;;;;;;5034541;28;19991;-86
2022/03/15 12:43:25;;;;;;;;;;;12.90;66.30;;;;;;5029856;28;19920;-86
2022/03/15 12:45:51;;;;;;;;;;;12.40;68.30;;;;;;5025390;28;19925;-85
2022/03/15 12:48:17;;;;;;;;;;;12.30;68.80;;;;;;5016016;28;19913;-85
2022/03/15 12:50:43;;;;;;;;;;;12.00;69.40;;;;;;5033093;28;20371;-86
2022/03/15 12:53:12;;;;;;;;;;;11.90;70.40;;;;;;5032628;28;19920;-86
2022/03/15 12:55:41;;;;;;;;;;;11.80;71.00;;;;;;5031882;28;19975;-85
2022/03/15 12:58:09;;;;;;;;;;;11.70;71.50;;;;;;5029839;28;20276;-86
2022/03/15 13:00:36;;;;;;;;;;;11.80;71.80;;;;;;5034718;28;20505;-86
2022/03/15 13:03:02;;;;;;;;;;;11.80;71.50;;;;;;5037228;28;19921;-86
2022/03/15 13:05:28;;;;;;;;;;;11.90;70.80;;;;;;5033817;28;20294;-86
2022/03/15 13:07:59;;;;;;;;;;;12.10;70.30;;;;;;5038959;28;19913;-86
2022/03/15 13:10:24;;;;;;;;;;;12.10;69.70;;;;;;5033066;28;19913;-86
2022/03/15 13:12:53;;;;;;;;;;;12.30;69.30;;;;;;5037280;28;20486;-86
2022/03/15 13:15:19;;;;;;;;;;;12.40;68.90;;;;;;5028355;28;19913;-86
2022/03/15 13:17:52;;;;;;;;;;;12.40;69.00;;;;;;5032280;28;19920;-86
2022/03/15 13:20:34;;;;;;;;;;;12.50;68.30;;;;;;5027871;28;19914;-86
2022/03/15 13:23:03;;;;;;;;;;;12.60;67.90;;;;;;5029751;28;19917;-86
2022/03/15 13:25:45;;;;;;;;;;;12.50;67.80;;;;;;5032102;28;19959;-85
2022/03/15 13:28:23;;;;;;;;;;;12.10;68.70;;;;;;5028007;28;19914;-86
2022/03/15 13:30:50;;;;;;;;;;;11.70;69.90;;;;;;5024072;28;20000;-86
2022/03/15 13:33:27;;;;;;;;;;;11.60;71.20;;;;;;5032801;28;20390;-85
2022/03/15 13:36:00;;;;;;;;;;;11.40;71.20;;;;;;5030086;28;19914;-85
2022/03/15 13:38:26;;;;;;;;;;;11.40;72.00;;;;;;5040629;28;19998;-86
2022/03/15 13:40:52;;;;;;;;;;;11.40;71.80;;;;;;5031404;28;19979;-86
2022/03/15 13:43:21;;;;;;;;;;;11.60;71.50;;;;;;5038933;28;20386;-86
2022/03/15 13:45:47;;;;;;;;;;;11.70;71.40;;;;;;5035870;28;20087;-86
2022/03/15 13:48:12;;;;;;;;;;;11.80;70.90;;;;;;5037161;28;20446;-86
2022/03/15 13:50:39;;;;;;;;;;;11.80;70.40;;;;;;5015850;28;19914;-86
2022/03/15 13:53:17;;;;;;;;;;;11.90;70.30;;;;;;5033609;28;19917;-86
2022/03/15 13:55:43;;;;;;;;;;;12.10;70.00;;;;;;5040710;28;19956;-86
2022/03/15 13:58:09;;;;;;;;;;;12.20;69.60;;;;;;5026665;28;19953;-86
2022/03/15 14:00:35;;;;;;;;;;;12.10;69.30;;;;;;5026786;28;19913;-86
2022/03/15 14:03:06;;;;;;;;;;;12.00;69.70;;;;;;5010945;28;19917;-86
2022/03/15 14:05:32;;;;;;;;;;;11.90;69.90;;;;;;5032174;28;19921;-85
2022/03/15 14:08:01;;;;;;;;;;;11.80;70.60;;;;;;5031980;28;19996;-86
2022/03/15 14:10:27;;;;;;;;;;;11.80;70.60;;;;;;5019425;28;19917;-86
2022/03/15 14:12:55;;;;;;;;;;;11.70;71.00;;;;;;5039086;28;19913;-85
2022/03/15 14:15:22;;;;;;;;;;;11.70;71.40;;;;;;5032167;28;19955;-86
2022/03/15 14:17:49;;;;;;;;;;;11.70;71.50;;;;;;5029190;28;19913;-86
2022/03/15 14:20:18;;;;;;;;;;;11.80;71.10;;;;;;5025076;28;19913;-86
2022/03/15 14:22:47;;;;;;;;;;;11.90;70.50;;;;;;5028325;28;19964;-86
2022/03/15 14:25:20;;;;;;;;;;;11.90;70.20;;;;;;5027948;28;19913;-86